createdAt,value
2022-10-16T00:00:00.559Z,28.38
2022-10-16T00:02:31.032Z,28.35
2022-10-16T00:05:01.330Z,28.35
2022-10-16T00:09:58.638Z,28.31
2022-10-16T00:12:29.610Z,28.13
2022-10-16T00:15:00.287Z,27.72
2022-10-16T00:17:31.551Z,27.77
2022-10-16T00:20:02.346Z,27.35
2022-10-16T00:22:33.505Z,27.49
2022-10-16T00:25:04.137Z,27.59
2022-10-16T00:27:35.034Z,27.55
2022-10-16T00:30:06.914Z,27.44
2022-10-16T00:32:37.712Z,27.53
2022-10-16T00:35:08.928Z,27.34
2022-10-16T00:37:39.756Z,27.46
2022-10-16T00:40:10.817Z,27.33
2022-10-16T00:42:42.672Z,27.35
2022-10-16T00:45:14.153Z,27.16
2022-10-16T00:47:49.702Z,27.25
2022-10-16T00:50:28.276Z,27.34
2022-10-16T00:53:00.413Z,27.11
2022-10-16T00:55:35.007Z,27.14
2022-10-16T00:58:07.280Z,27.09
2022-10-16T01:00:38.021Z,27.16
2022-10-16T01:03:34.371Z,27.21
2022-10-16T01:06:37.279Z,26.96
2022-10-16T01:09:27.894Z,27.08
2022-10-16T01:12:14.486Z,26.97
2022-10-16T01:15:08.767Z,27.13
2022-10-16T01:17:43.109Z,27.13
2022-10-16T01:20:27.879Z,27.12
2022-10-16T01:23:09.214Z,27.14
2022-10-16T01:25:58.089Z,27.12
2022-10-16T01:28:36.646Z,27.16
2022-10-16T01:31:08.191Z,27.17
2022-10-16T01:33:49.851Z,27.23
2022-10-16T01:36:24.096Z,27.20
2022-10-16T01:38:58.652Z,27.28
2022-10-16T01:41:37.764Z,27.28
2022-10-16T01:44:23.455Z,27.35
2022-10-16T01:46:56.074Z,27.20
2022-10-16T01:49:32.783Z,27.11
2022-10-16T01:52:07.423Z,27.02
2022-10-16T01:54:41.387Z,27.06
2022-10-16T01:57:16.797Z,27.12
2022-10-16T01:59:53.192Z,27.12
2022-10-16T02:02:27.019Z,26.89
2022-10-16T02:05:13.737Z,27.06
2022-10-16T02:07:47.586Z,27.03
2022-10-16T02:10:18.851Z,27.15
2022-10-16T02:13:00.412Z,27.03
2022-10-16T02:15:30.924Z,27.11
2022-10-16T02:18:01.734Z,27.06
2022-10-16T02:20:40.981Z,27.12
2022-10-16T02:23:19.930Z,27.17
2022-10-16T02:25:54.134Z,27.07
2022-10-16T02:28:33.614Z,27.05
2022-10-16T02:31:08.924Z,26.86
2022-10-16T02:33:43.772Z,26.97
2022-10-16T02:36:15.001Z,26.97
2022-10-16T02:38:45.972Z,26.98
2022-10-16T02:41:18.388Z,27.03
2022-10-16T02:43:49.174Z,27.02
2022-10-16T02:46:21.679Z,26.98
2022-10-16T02:48:52.697Z,26.90
2022-10-16T02:51:23.498Z,27.01
2022-10-16T02:53:54.168Z,26.91
2022-10-16T02:56:25.336Z,26.97
2022-10-16T02:58:56.075Z,26.91
2022-10-16T03:01:29.198Z,26.86
2022-10-16T03:03:59.996Z,26.85
2022-10-16T03:06:30.806Z,26.90
2022-10-16T03:09:01.894Z,26.87
2022-10-16T03:11:32.783Z,26.98
2022-10-16T03:14:03.731Z,27.04
2022-10-16T03:16:34.519Z,27.08
2022-10-16T03:19:05.429Z,27.08
2022-10-16T03:21:36.303Z,26.73
2022-10-16T03:24:07.346Z,26.94
2022-10-16T03:26:38.017Z,26.90
2022-10-16T03:29:09.035Z,26.73
2022-10-16T03:31:39.884Z,26.94
2022-10-16T03:34:10.863Z,26.92
2022-10-16T03:36:42.020Z,26.90
2022-10-16T03:39:12.899Z,26.93
2022-10-16T03:41:43.995Z,26.95
2022-10-16T03:44:14.897Z,27.02
2022-10-16T03:46:46.041Z,27.02
2022-10-16T03:49:16.783Z,26.84
2022-10-16T03:51:47.539Z,26.77
2022-10-16T03:54:18.551Z,26.86
2022-10-16T03:56:49.685Z,26.85
2022-10-16T03:59:20.721Z,26.78
2022-10-16T04:01:51.471Z,26.80
2022-10-16T04:04:22.791Z,26.86
2022-10-16T04:06:53.096Z,26.63
2022-10-16T04:09:23.789Z,26.86
2022-10-16T04:11:54.536Z,26.97
2022-10-16T04:14:25.110Z,27.00
2022-10-16T04:16:55.831Z,26.82
2022-10-16T04:19:26.603Z,26.82
2022-10-16T04:21:58.571Z,26.97
2022-10-16T04:24:29.464Z,27.06
2022-10-16T04:27:00.464Z,27.08
2022-10-16T04:29:31.932Z,26.94
2022-10-16T04:32:02.838Z,27.11
2022-10-16T04:34:33.689Z,26.80
2022-10-16T04:37:04.468Z,26.68
2022-10-16T04:39:35.444Z,26.62
2022-10-16T04:42:06.560Z,26.75
2022-10-16T04:44:37.256Z,26.69
2022-10-16T04:47:08.422Z,26.74
2022-10-16T04:49:39.176Z,26.82
2022-10-16T04:52:10.140Z,26.77
2022-10-16T04:54:40.955Z,26.58
2022-10-16T04:57:11.690Z,26.74
2022-10-16T04:59:42.731Z,26.88
2022-10-16T05:02:13.553Z,26.90
2022-10-16T05:04:44.243Z,27.02
2022-10-16T05:07:15.053Z,27.01
2022-10-16T05:09:46.027Z,26.95
2022-10-16T05:12:16.832Z,27.07
2022-10-16T05:14:47.518Z,27.04
2022-10-16T05:17:18.545Z,27.10
2022-10-16T05:19:49.334Z,26.95
2022-10-16T05:22:19.976Z,26.81
2022-10-16T05:24:50.957Z,27.01
2022-10-16T05:27:24.873Z,27.02
2022-10-16T05:29:56.210Z,26.97
2022-10-16T05:32:27.020Z,27.05
2022-10-16T05:34:57.993Z,27.16
2022-10-16T05:37:28.964Z,27.01
2022-10-16T05:39:59.953Z,27.03
2022-10-16T05:42:30.782Z,26.93
2022-10-16T05:45:01.703Z,26.97
2022-10-16T05:47:32.524Z,27.04
2022-10-16T05:50:03.164Z,27.02
2022-10-16T05:52:35.541Z,27.08
2022-10-16T05:55:06.362Z,27.10
2022-10-16T05:57:37.292Z,27.02
2022-10-16T06:00:08.861Z,26.96
2022-10-16T06:02:45.711Z,26.89
2022-10-16T06:05:16.564Z,26.99
2022-10-16T06:07:47.251Z,26.99
2022-10-16T06:10:18.518Z,26.99
2022-10-16T06:12:48.898Z,26.95
2022-10-16T06:15:19.577Z,27.03
2022-10-16T06:17:50.264Z,26.86
2022-10-16T06:20:20.951Z,26.88
2022-10-16T06:22:51.707Z,26.96
2022-10-16T06:25:22.703Z,27.02
2022-10-16T06:27:53.472Z,26.96
2022-10-16T06:30:24.382Z,26.87
2022-10-16T06:35:26.123Z,26.93
2022-10-16T06:38:00.014Z,26.94
2022-10-16T06:40:30.862Z,26.97
2022-10-16T06:43:02.270Z,26.99
2022-10-16T06:45:33.106Z,27.06
2022-10-16T06:48:03.790Z,26.97
2022-10-16T06:50:34.495Z,26.85
2022-10-16T06:53:06.222Z,27.00
2022-10-16T06:55:37.160Z,27.05
2022-10-16T06:58:07.864Z,27.10
2022-10-16T07:00:38.658Z,27.17
2022-10-16T07:03:11.349Z,27.20
2022-10-16T07:05:46.253Z,26.97
2022-10-16T07:08:17.069Z,27.20
2022-10-16T07:10:47.856Z,27.15
2022-10-16T07:13:18.638Z,27.17
2022-10-16T07:15:49.452Z,27.18
2022-10-16T07:18:20.356Z,27.14
2022-10-16T07:20:51.069Z,27.04
2022-10-16T07:23:23.163Z,27.00
2022-10-16T07:26:02.647Z,27.02
2022-10-16T07:28:33.727Z,27.00
2022-10-16T07:31:10.509Z,27.15
2022-10-16T07:33:42.290Z,27.23
2022-10-16T07:36:16.344Z,27.26
2022-10-16T07:38:48.318Z,27.29
2022-10-16T07:41:22.660Z,27.21
2022-10-16T07:43:55.763Z,27.18
2022-10-16T07:46:27.229Z,27.19
2022-10-16T07:48:57.557Z,27.23
2022-10-16T07:51:29.967Z,27.20
2022-10-16T07:54:00.890Z,27.23
2022-10-16T07:56:31.639Z,27.30
2022-10-16T07:59:02.733Z,27.13
2022-10-16T08:01:33.644Z,27.22
2022-10-16T08:06:42.235Z,27.26
2022-10-16T08:09:13.475Z,27.23
2022-10-16T08:11:44.198Z,27.26
2022-10-16T08:14:15.146Z,27.29
2022-10-16T08:16:46.063Z,27.38
2022-10-16T08:19:16.862Z,27.30
2022-10-16T08:21:50.674Z,27.34
2022-10-16T08:24:21.344Z,27.31
2022-10-16T08:26:52.129Z,27.18
2022-10-16T08:29:22.787Z,27.25
2022-10-16T08:31:53.608Z,27.16
2022-10-16T08:34:24.572Z,27.19
2022-10-16T08:36:58.383Z,27.27
2022-10-16T08:39:29.317Z,27.28
2022-10-16T08:42:08.278Z,27.28
2022-10-16T08:44:39.860Z,27.29
2022-10-16T08:47:27.833Z,27.20
2022-10-16T08:50:06.342Z,27.17
2022-10-16T08:52:40.045Z,27.23
2022-10-16T08:55:21.232Z,27.31
2022-10-16T08:57:52.006Z,27.38
2022-10-16T09:00:23.354Z,27.25
2022-10-16T09:03:03.994Z,27.35
2022-10-16T09:06:01.968Z,27.31
2022-10-16T09:08:38.441Z,27.23
2022-10-16T09:11:18.266Z,27.31
2022-10-16T09:14:06.521Z,27.29
2022-10-16T09:17:04.600Z,27.18
2022-10-16T09:19:43.154Z,27.11
2022-10-16T09:22:22.143Z,27.25
2022-10-16T09:24:53.073Z,27.27
2022-10-16T09:27:25.020Z,27.20
2022-10-16T09:29:59.632Z,27.25
2022-10-16T09:32:32.978Z,27.26
2022-10-16T09:35:04.036Z,27.26
2022-10-16T09:37:35.549Z,27.18
2022-10-16T09:40:07.671Z,27.28
2022-10-16T09:42:41.128Z,27.25
2022-10-16T09:45:26.619Z,27.31
2022-10-16T09:47:57.917Z,27.30
2022-10-16T09:50:32.678Z,27.36
2022-10-16T09:53:10.401Z,27.35
2022-10-16T09:55:51.294Z,27.31
2022-10-16T09:58:22.321Z,27.17
2022-10-16T10:00:56.005Z,27.26
2022-10-16T10:03:38.335Z,27.17
2022-10-16T10:06:44.675Z,27.19
2022-10-16T10:09:46.540Z,27.15
2022-10-16T10:12:26.963Z,27.14
2022-10-16T10:15:11.616Z,27.15
2022-10-16T10:17:56.953Z,27.18
2022-10-16T10:20:42.385Z,27.09
2022-10-16T10:23:39.644Z,27.15
2022-10-16T10:26:22.549Z,27.16
2022-10-16T10:29:26.880Z,27.16
2022-10-16T10:32:29.040Z,27.23
2022-10-16T10:35:22.794Z,27.23
2022-10-16T10:38:02.235Z,27.27
2022-10-16T10:40:51.365Z,27.34
2022-10-16T10:43:52.761Z,27.42
2022-10-16T10:46:43.291Z,27.31
2022-10-16T10:49:30.906Z,27.43
2022-10-16T10:52:01.668Z,27.38
2022-10-16T10:54:50.118Z,27.41
2022-10-16T10:57:32.660Z,27.41
2022-10-16T11:00:40.535Z,27.44
2022-10-16T11:03:31.344Z,27.42
2022-10-16T11:06:01.983Z,27.48
2022-10-16T11:08:35.816Z,27.42
2022-10-16T11:11:13.190Z,27.47
2022-10-16T11:14:01.634Z,27.46
2022-10-16T11:16:53.898Z,27.47
2022-10-16T11:19:46.030Z,27.47
2022-10-16T11:22:34.549Z,27.52
2022-10-16T11:25:20.110Z,27.51
2022-10-16T11:28:07.654Z,27.52
2022-10-16T11:31:08.361Z,27.54
2022-10-16T11:33:57.220Z,27.56
2022-10-16T11:36:52.035Z,27.58
2022-10-16T11:39:32.288Z,27.56
2022-10-16T11:42:05.696Z,27.60
2022-10-16T11:44:54.331Z,27.49
2022-10-16T11:48:00.521Z,27.55
2022-10-16T11:50:46.446Z,27.54
2022-10-16T11:53:39.646Z,27.53
2022-10-16T11:56:10.480Z,27.51
2022-10-16T11:58:45.612Z,27.53
2022-10-16T12:01:42.332Z,27.51
2022-10-16T12:04:19.323Z,27.50
2022-10-16T12:06:55.934Z,27.46
2022-10-16T12:12:51.051Z,27.51
2022-10-16T12:18:36.799Z,27.50
2022-10-16T12:24:03.526Z,27.59
2022-10-16T12:29:46.123Z,27.64
2022-10-16T12:32:47.091Z,27.65
2022-10-16T12:35:34.430Z,27.66
2022-10-16T12:38:24.399Z,27.72
2022-10-16T12:41:11.938Z,27.74
2022-10-16T12:43:46.056Z,27.78
2022-10-16T12:46:16.883Z,27.74
2022-10-16T12:49:06.043Z,27.78
2022-10-16T12:51:37.176Z,27.80
2022-10-16T12:54:17.573Z,27.76
2022-10-16T12:57:25.924Z,27.79
2022-10-16T12:59:56.705Z,27.77
2022-10-16T13:03:07.738Z,27.78
2022-10-16T13:06:15.068Z,27.82
2022-10-16T14:19:10.810Z,27.23
2022-10-16T14:21:44.240Z,27.26
2022-10-16T14:24:28.663Z,27.31
2022-10-16T14:27:00.066Z,27.40
2022-10-16T14:29:35.137Z,27.44
2022-10-16T14:32:08.856Z,27.51
2022-10-16T14:34:43.862Z,27.56
2022-10-16T14:37:31.266Z,27.62
2022-10-16T14:40:02.625Z,27.66
2022-10-16T14:42:34.652Z,27.70
2022-10-16T14:45:05.341Z,27.75
2022-10-16T14:47:36.124Z,27.77
2022-10-16T14:50:07.199Z,27.82
2022-10-16T14:52:37.996Z,27.82
2022-10-16T14:57:54.630Z,27.87
2022-10-16T15:00:30.410Z,27.85
2022-10-16T15:03:04.716Z,27.86
2022-10-16T15:05:55.335Z,27.88
2022-10-16T15:08:32.911Z,27.91
2022-10-16T15:11:09.905Z,27.92
2022-10-16T15:16:32.455Z,27.91
2022-10-16T15:19:05.954Z,27.91
2022-10-16T15:21:43.058Z,27.93
2022-10-16T15:27:03.658Z,27.96
2022-10-16T15:32:17.725Z,27.94
2022-10-16T15:34:48.462Z,28.02
2022-10-16T15:37:19.316Z,28.00
2022-10-16T15:39:50.088Z,27.99
2022-10-16T15:42:20.885Z,27.99
2022-10-16T15:44:53.793Z,27.99
2022-10-16T15:47:24.633Z,27.96
2022-10-16T15:49:55.439Z,28.00
2022-10-16T15:52:26.554Z,27.95
2022-10-16T15:54:57.176Z,27.99
2022-10-16T15:57:28.303Z,27.96
2022-10-16T15:59:59.174Z,27.95
2022-10-16T16:02:29.961Z,27.96
2022-10-16T16:05:00.832Z,27.98
2022-10-16T16:07:31.783Z,27.97
2022-10-16T16:10:02.595Z,27.96
2022-10-16T16:12:34.129Z,27.98
2022-10-16T16:15:05.858Z,27.96
2022-10-16T16:17:38.059Z,27.99
2022-10-16T16:20:09.693Z,27.93
2022-10-16T16:22:40.542Z,27.99
2022-10-16T16:25:11.673Z,27.97
2022-10-16T16:27:42.517Z,27.96
2022-10-16T16:30:18.680Z,27.94
2022-10-16T16:32:51.434Z,27.96
2022-10-16T16:35:22.342Z,27.93
2022-10-16T16:37:53.076Z,27.93
2022-10-16T16:40:23.994Z,27.94
2022-10-16T16:42:54.909Z,27.92
2022-10-16T16:45:25.606Z,27.95
2022-10-16T16:47:56.537Z,27.95
2022-10-16T16:50:27.187Z,27.95
2022-10-16T16:52:58.000Z,27.93
2022-10-16T16:55:28.731Z,27.94
2022-10-16T16:58:00.626Z,27.93
2022-10-16T17:00:31.442Z,27.97
2022-10-16T17:03:02.218Z,27.98
2022-10-16T17:05:32.899Z,27.94
2022-10-16T17:08:03.626Z,27.92
2022-10-16T17:10:34.337Z,27.93
2022-10-16T17:13:04.884Z,27.91
2022-10-16T17:15:35.702Z,27.93
2022-10-16T17:18:06.581Z,27.92
2022-10-16T17:20:39.863Z,27.92
2022-10-16T17:23:11.345Z,27.91
2022-10-16T17:25:43.449Z,27.96
2022-10-16T17:28:16.079Z,27.92
2022-10-16T17:30:47.754Z,27.92
2022-10-16T17:33:18.698Z,27.93
2022-10-16T17:35:50.737Z,27.92
2022-10-16T17:38:21.358Z,27.92
2022-10-16T17:40:52.079Z,27.90
2022-10-16T17:43:22.801Z,27.93
2022-10-16T17:45:53.574Z,27.91
2022-10-16T17:48:24.492Z,27.89
2022-10-16T17:50:55.291Z,27.88
2022-10-16T17:53:25.948Z,27.90
2022-10-16T17:56:02.035Z,27.88
2022-10-16T17:58:32.716Z,27.91
2022-10-16T18:01:03.457Z,27.88
2022-10-16T18:03:34.281Z,27.87
2022-10-16T18:06:05.137Z,27.91
2022-10-16T18:08:39.335Z,27.91
2022-10-16T18:11:10.193Z,27.89
2022-10-16T18:13:41.193Z,27.92
2022-10-16T18:16:15.748Z,27.90
2022-10-16T18:18:50.739Z,27.92
2022-10-16T18:21:23.203Z,27.89
2022-10-16T18:23:53.940Z,27.89
2022-10-16T18:26:26.176Z,27.89
2022-10-16T18:28:59.962Z,27.89
2022-10-16T18:31:30.984Z,27.89
2022-10-16T18:34:01.801Z,27.90
2022-10-16T18:36:35.867Z,27.91
2022-10-16T18:39:13.990Z,27.89
2022-10-16T18:41:50.194Z,27.87
2022-10-16T18:46:59.863Z,27.88
2022-10-16T18:49:32.398Z,27.92
2022-10-16T18:52:05.781Z,27.90
2022-10-16T18:54:37.657Z,27.91
2022-10-16T18:57:08.477Z,27.93
2022-10-16T18:59:39.243Z,27.87
2022-10-16T19:02:10.382Z,27.87
2022-10-16T19:04:41.342Z,27.88
2022-10-16T19:07:12.702Z,27.90
2022-10-16T19:09:43.420Z,27.87
2022-10-16T19:12:14.205Z,27.87
2022-10-16T19:14:45.072Z,27.88
2022-10-16T19:17:15.873Z,27.88
2022-10-16T19:19:46.609Z,27.86
2022-10-16T19:22:30.545Z,27.84
2022-10-16T19:25:01.498Z,27.84
2022-10-16T19:27:32.455Z,27.84
2022-10-16T19:30:03.242Z,27.88
2022-10-16T19:32:35.867Z,27.89
2022-10-16T19:35:07.018Z,27.84
2022-10-16T19:37:39.034Z,27.86
2022-10-16T19:40:10.503Z,27.86
2022-10-16T19:42:46.157Z,27.88
2022-10-16T19:45:17.238Z,27.88
2022-10-16T19:47:48.575Z,27.86
2022-10-16T19:50:21.813Z,27.85
2022-10-16T19:52:52.583Z,27.88
2022-10-16T19:55:24.283Z,27.85
2022-10-16T19:57:55.277Z,27.91
2022-10-16T20:00:26.144Z,27.85
2022-10-16T20:02:56.981Z,27.84
2022-10-16T20:05:27.941Z,27.85
2022-10-16T20:07:58.841Z,27.86
2022-10-16T20:10:29.885Z,27.83
2022-10-16T20:13:00.672Z,27.80
2022-10-16T20:15:31.660Z,27.82
2022-10-16T20:18:02.474Z,27.83
2022-10-16T20:20:33.002Z,27.85
2022-10-16T20:23:04.475Z,27.85
2022-10-16T20:25:39.279Z,27.87
2022-10-16T20:28:11.579Z,27.90
2022-10-16T20:30:45.347Z,27.86
2022-10-16T20:33:16.472Z,27.89
2022-10-16T20:35:49.955Z,27.88
2022-10-16T20:38:21.890Z,27.85
2022-10-16T20:40:52.663Z,27.83
2022-10-16T20:43:23.400Z,27.86
2022-10-16T20:46:03.556Z,27.90
2022-10-16T20:48:35.087Z,27.86
2022-10-16T20:51:15.702Z,27.87
2022-10-16T20:53:48.185Z,27.87
2022-10-16T20:56:20.134Z,27.88
2022-10-16T20:58:50.936Z,27.85
2022-10-16T21:01:25.337Z,27.87
2022-10-16T21:04:02.313Z,27.87
2022-10-16T21:06:35.388Z,27.87
2022-10-16T21:09:06.829Z,27.87
2022-10-16T21:11:38.044Z,27.88
2022-10-16T21:14:11.058Z,27.87
2022-10-16T21:16:41.831Z,27.90
2022-10-16T21:19:12.656Z,27.88
2022-10-16T21:21:43.385Z,27.92
2022-10-16T21:24:16.624Z,27.92
2022-10-16T21:26:48.496Z,27.91
2022-10-16T21:29:19.526Z,27.91
2022-10-16T21:31:50.337Z,27.91
2022-10-16T21:34:21.090Z,27.92
2022-10-16T21:36:52.032Z,27.90
2022-10-16T21:39:23.749Z,27.93
2022-10-16T21:41:54.724Z,27.93
2022-10-16T21:44:26.176Z,27.89
2022-10-16T21:46:56.472Z,27.90
2022-10-16T21:49:27.901Z,27.87
2022-10-16T21:51:58.219Z,27.87
2022-10-16T21:54:28.796Z,27.89
2022-10-16T21:56:59.759Z,27.89
2022-10-16T21:59:30.462Z,27.88
2022-10-16T22:02:01.957Z,27.91
2022-10-16T22:04:33.371Z,27.88
2022-10-16T22:07:03.834Z,27.89
2022-10-16T22:09:34.546Z,27.86
2022-10-16T22:12:05.098Z,27.87
2022-10-16T22:14:36.085Z,27.87
2022-10-16T22:17:06.931Z,27.90
2022-10-16T22:19:37.726Z,27.87
2022-10-16T22:22:08.741Z,27.86
2022-10-16T22:24:40.346Z,27.91
2022-10-16T22:27:11.137Z,27.91
2022-10-16T22:29:41.716Z,27.88
2022-10-16T22:32:12.552Z,27.90
2022-10-16T22:34:43.941Z,27.87
2022-10-16T22:37:14.907Z,27.91
2022-10-16T22:39:45.720Z,27.90
2022-10-16T22:42:16.490Z,27.93
2022-10-16T22:44:47.572Z,27.91
2022-10-16T22:47:18.402Z,27.89
2022-10-16T22:49:49.123Z,27.87
2022-10-16T22:52:19.938Z,27.88
2022-10-16T22:54:51.366Z,27.88
2022-10-16T22:57:22.004Z,27.93
2022-10-16T22:59:53.083Z,27.88
2022-10-16T23:02:24.408Z,27.93
2022-10-16T23:05:32.232Z,27.92
2022-10-16T23:08:03.403Z,27.90
2022-10-16T23:10:34.185Z,27.85
2022-10-16T23:13:04.883Z,27.87
2022-10-16T23:15:35.599Z,27.88
2022-10-16T23:18:06.257Z,27.87
2022-10-16T23:20:37.160Z,27.84
2022-10-16T23:23:07.878Z,27.83
2022-10-16T23:25:39.548Z,27.84
2022-10-16T23:28:10.290Z,27.84
2022-10-16T23:30:42.024Z,27.83
2022-10-16T23:33:12.709Z,27.82
2022-10-16T23:35:44.141Z,27.83
2022-10-16T23:38:14.974Z,27.84
2022-10-16T23:40:45.671Z,27.82
2022-10-16T23:43:16.473Z,27.83
2022-10-16T23:45:47.316Z,27.84
2022-10-16T23:48:18.353Z,27.87
2022-10-16T23:50:49.261Z,27.85
2022-10-16T23:53:20.436Z,27.86
2022-10-16T23:55:51.251Z,27.87
2022-10-16T23:58:22.322Z,27.84
